<?xml version="1.0" encoding="UTF-8" standalone="no" ?>
<gpx xmlns="http://www.topografix.com/GPX/1/1" xmlns:xsi="http://www.w3.org/2001/XMLSchema-instance" xsi:schemaLocation="http://www.topografix.com/GPX/1/1 http://www.topografix.com/GPX/1/1/gpx.xsd" version="1.1" creator="VisuGPX - https://www.visugpx.com">
  <metadata>
    <name>reculée baumes les messieurs par les belvédères</name>
  </metadata>
  <trk>
    <name><![CDATA[reculées baumes les messieurs échelles de Sermu-11543902]]></name>
    <trkseg>
      <trkpt lat="46.70804" lon="5.64765">
        <ele>310</ele>
        <time>2025-05-20T05:48:10Z</time>
      </trkpt>
      <trkpt lat="46.70778" lon="5.64748">
        <ele>306</ele>
        <time>2025-05-20T05:48:48Z</time>
      </trkpt>
      <trkpt lat="46.70783" lon="5.64703">
        <ele>304</ele>
        <time>2025-05-20T05:49:30Z</time>
      </trkpt>
      <trkpt lat="46.70771" lon="5.64625">
        <ele>312</ele>
        <time>2025-05-20T05:50:43Z</time>
      </trkpt>
      <trkpt lat="46.70712" lon="5.64655">
        <ele>306</ele>
        <time>2025-05-20T05:52:06Z</time>
      </trkpt>
      <trkpt lat="46.7066" lon="5.64666">
        <ele>306</ele>
        <time>2025-05-20T05:53:16Z</time>
      </trkpt>
      <trkpt lat="46.70619" lon="5.64653">
        <ele>311</ele>
        <time>2025-05-20T05:54:12Z</time>
      </trkpt>
      <trkpt lat="46.70594" lon="5.64649">
        <ele>312</ele>
        <time>2025-05-20T05:54:46Z</time>
      </trkpt>
      <trkpt lat="46.70593" lon="5.64619">
        <ele>318</ele>
        <time>2025-05-20T05:55:13Z</time>
      </trkpt>
      <trkpt lat="46.70622" lon="5.64591">
        <ele>324</ele>
        <time>2025-05-20T05:56:00Z</time>
      </trkpt>
      <trkpt lat="46.70662" lon="5.64577">
        <ele>327</ele>
        <time>2025-05-20T05:56:55Z</time>
      </trkpt>
      <trkpt lat="46.70669" lon="5.64566">
        <ele>330</ele>
        <time>2025-05-20T05:57:08Z</time>
      </trkpt>
      <trkpt lat="46.70653" lon="5.64535">
        <ele>336</ele>
        <time>2025-05-20T05:57:44Z</time>
      </trkpt>
      <trkpt lat="46.70633" lon="5.64512">
        <ele>340</ele>
        <time>2025-05-20T05:58:18Z</time>
      </trkpt>
      <trkpt lat="46.70625" lon="5.64491">
        <ele>346</ele>
        <time>2025-05-20T05:58:40Z</time>
      </trkpt>
      <trkpt lat="46.70631" lon="5.64475">
        <ele>352</ele>
        <time>2025-05-20T05:58:57Z</time>
      </trkpt>
      <trkpt lat="46.70615" lon="5.64441">
        <ele>363</ele>
        <time>2025-05-20T05:59:34Z</time>
      </trkpt>
      <trkpt lat="46.70669" lon="5.64418">
        <ele>381</ele>
        <time>2025-05-20T06:00:49Z</time>
      </trkpt>
      <trkpt lat="46.70683" lon="5.64379">
        <ele>422</ele>
        <time>2025-05-20T06:01:30Z</time>
      </trkpt>
      <trkpt lat="46.7069" lon="5.64385">
        <ele>417</ele>
        <time>2025-05-20T06:01:41Z</time>
      </trkpt>
      <trkpt lat="46.70729" lon="5.64397">
        <ele>411</ele>
        <time>2025-05-20T06:02:34Z</time>
      </trkpt>
      <trkpt lat="46.70754" lon="5.64379">
        <ele>430</ele>
        <time>2025-05-20T06:03:11Z</time>
      </trkpt>
      <trkpt lat="46.70745" lon="5.64356">
        <ele>449</ele>
        <time>2025-05-20T06:03:35Z</time>
      </trkpt>
      <trkpt lat="46.7066" lon="5.64337">
        <ele>463</ele>
        <time>2025-05-20T06:05:30Z</time>
      </trkpt>
      <trkpt lat="46.70662" lon="5.64322">
        <ele>469</ele>
        <time>2025-05-20T06:05:44Z</time>
      </trkpt>
      <trkpt lat="46.70683" lon="5.64306">
        <ele>473</ele>
        <time>2025-05-20T06:06:16Z</time>
      </trkpt>
      <trkpt lat="46.70685" lon="5.64296">
        <ele>476</ele>
        <time>2025-05-20T06:06:25Z</time>
      </trkpt>
      <trkpt lat="46.70723" lon="5.64289">
        <ele>479</ele>
        <time>2025-05-20T06:07:16Z</time>
      </trkpt>
      <trkpt lat="46.70762" lon="5.643">
        <ele>478</ele>
        <time>2025-05-20T06:08:09Z</time>
      </trkpt>
      <trkpt lat="46.70776" lon="5.64321">
        <ele>474</ele>
        <time>2025-05-20T06:08:36Z</time>
      </trkpt>
      <trkpt lat="46.70741" lon="5.64297">
        <ele>477</ele>
        <time>2025-05-20T06:09:28Z</time>
      </trkpt>
      <trkpt lat="46.70683" lon="5.64288">
        <ele>477</ele>
        <time>2025-05-20T06:10:45Z</time>
      </trkpt>
      <trkpt lat="46.70653" lon="5.64303">
        <ele>473</ele>
        <time>2025-05-20T06:11:28Z</time>
      </trkpt>
      <trkpt lat="46.70616" lon="5.64303">
        <ele>471</ele>
        <time>2025-05-20T06:12:17Z</time>
      </trkpt>
      <trkpt lat="46.70509" lon="5.64279">
        <ele>479</ele>
        <time>2025-05-20T06:14:42Z</time>
      </trkpt>
      <trkpt lat="46.70469" lon="5.64232">
        <ele>497</ele>
        <time>2025-05-20T06:15:50Z</time>
      </trkpt>
      <trkpt lat="46.70406" lon="5.64226">
        <ele>490</ele>
        <time>2025-05-20T06:17:14Z</time>
      </trkpt>
      <trkpt lat="46.70353" lon="5.64196">
        <ele>489</ele>
        <time>2025-05-20T06:18:30Z</time>
      </trkpt>
      <trkpt lat="46.70327" lon="5.64205">
        <ele>480</ele>
        <time>2025-05-20T06:19:06Z</time>
      </trkpt>
      <trkpt lat="46.70298" lon="5.64203">
        <ele>467</ele>
        <time>2025-05-20T06:19:45Z</time>
      </trkpt>
      <trkpt lat="46.70258" lon="5.64171">
        <ele>482</ele>
        <time>2025-05-20T06:20:46Z</time>
      </trkpt>
      <trkpt lat="46.70228" lon="5.6412">
        <ele>482</ele>
        <time>2025-05-20T06:21:47Z</time>
      </trkpt>
      <trkpt lat="46.7021" lon="5.64104">
        <ele>482</ele>
        <time>2025-05-20T06:22:15Z</time>
      </trkpt>
      <trkpt lat="46.70169" lon="5.64093">
        <ele>482</ele>
        <time>2025-05-20T06:23:11Z</time>
      </trkpt>
      <trkpt lat="46.70092" lon="5.64018">
        <ele>483</ele>
        <time>2025-05-20T06:25:14Z</time>
      </trkpt>
      <trkpt lat="46.7008" lon="5.63993">
        <ele>494</ele>
        <time>2025-05-20T06:25:42Z</time>
      </trkpt>
      <trkpt lat="46.70011" lon="5.6397">
        <ele>487</ele>
        <time>2025-05-20T06:27:17Z</time>
      </trkpt>
      <trkpt lat="46.6998" lon="5.63944">
        <ele>496</ele>
        <time>2025-05-20T06:28:04Z</time>
      </trkpt>
      <trkpt lat="46.6996" lon="5.63898">
        <ele>503</ele>
        <time>2025-05-20T06:28:54Z</time>
      </trkpt>
      <trkpt lat="46.6993" lon="5.63853">
        <ele>503</ele>
        <time>2025-05-20T06:29:52Z</time>
      </trkpt>
      <trkpt lat="46.69935" lon="5.63842">
        <ele>503</ele>
        <time>2025-05-20T06:30:04Z</time>
      </trkpt>
      <trkpt lat="46.69905" lon="5.63797">
        <ele>504</ele>
        <time>2025-05-20T06:31:01Z</time>
      </trkpt>
      <trkpt lat="46.69734" lon="5.63786">
        <ele>505</ele>
        <time>2025-05-20T06:34:50Z</time>
      </trkpt>
      <trkpt lat="46.69605" lon="5.63795">
        <ele>507</ele>
        <time>2025-05-20T06:37:42Z</time>
      </trkpt>
      <trkpt lat="46.69572" lon="5.63765">
        <ele>507</ele>
        <time>2025-05-20T06:38:34Z</time>
      </trkpt>
      <trkpt lat="46.69572" lon="5.63699">
        <ele>509</ele>
        <time>2025-05-20T06:39:34Z</time>
      </trkpt>
      <trkpt lat="46.69587" lon="5.63636">
        <ele>506</ele>
        <time>2025-05-20T06:40:35Z</time>
      </trkpt>
      <trkpt lat="46.69583" lon="5.63608">
        <ele>502</ele>
        <time>2025-05-20T06:41:02Z</time>
      </trkpt>
      <trkpt lat="46.69518" lon="5.63547">
        <ele>504</ele>
        <time>2025-05-20T06:42:45Z</time>
      </trkpt>
      <trkpt lat="46.69486" lon="5.635">
        <ele>507</ele>
        <time>2025-05-20T06:43:45Z</time>
      </trkpt>
      <trkpt lat="46.69429" lon="5.63486">
        <ele>507</ele>
        <time>2025-05-20T06:45:02Z</time>
      </trkpt>
      <trkpt lat="46.69325" lon="5.63429">
        <ele>511</ele>
        <time>2025-05-20T06:47:31Z</time>
      </trkpt>
      <trkpt lat="46.69254" lon="5.63428">
        <ele>517</ele>
        <time>2025-05-20T06:49:05Z</time>
      </trkpt>
      <trkpt lat="46.69206" lon="5.63482">
        <ele>520</ele>
        <time>2025-05-20T06:50:26Z</time>
      </trkpt>
      <trkpt lat="46.69067" lon="5.63513">
        <ele>519</ele>
        <time>2025-05-20T06:53:34Z</time>
      </trkpt>
      <trkpt lat="46.69041" lon="5.63546">
        <ele>518</ele>
        <time>2025-05-20T06:54:20Z</time>
      </trkpt>
      <trkpt lat="46.69013" lon="5.63606">
        <ele>514</ele>
        <time>2025-05-20T06:55:26Z</time>
      </trkpt>
      <trkpt lat="46.68956" lon="5.63681">
        <ele>502</ele>
        <time>2025-05-20T06:57:09Z</time>
      </trkpt>
      <trkpt lat="46.68861" lon="5.63719">
        <ele>500</ele>
        <time>2025-05-20T06:59:20Z</time>
      </trkpt>
      <trkpt lat="46.68832" lon="5.63738">
        <ele>504</ele>
        <time>2025-05-20T07:00:03Z</time>
      </trkpt>
      <trkpt lat="46.68807" lon="5.6377">
        <ele>503</ele>
        <time>2025-05-20T07:00:47Z</time>
      </trkpt>
      <trkpt lat="46.68803" lon="5.63868">
        <ele>497</ele>
        <time>2025-05-20T07:02:17Z</time>
      </trkpt>
      <trkpt lat="46.68787" lon="5.63958">
        <ele>498</ele>
        <time>2025-05-20T07:03:42Z</time>
      </trkpt>
      <trkpt lat="46.6879" lon="5.63989">
        <ele>499</ele>
        <time>2025-05-20T07:04:11Z</time>
      </trkpt>
      <trkpt lat="46.68795" lon="5.6398">
        <ele>498</ele>
        <time>2025-05-20T07:04:21Z</time>
      </trkpt>
      <trkpt lat="46.68832" lon="5.63977">
        <ele>495</ele>
        <time>2025-05-20T07:05:11Z</time>
      </trkpt>
      <trkpt lat="46.68831" lon="5.63994">
        <ele>497</ele>
        <time>2025-05-20T07:05:27Z</time>
      </trkpt>
      <trkpt lat="46.68842" lon="5.64022">
        <ele>497</ele>
        <time>2025-05-20T07:05:56Z</time>
      </trkpt>
      <trkpt lat="46.6884" lon="5.64052">
        <ele>501</ele>
        <time>2025-05-20T07:06:24Z</time>
      </trkpt>
      <trkpt lat="46.68848" lon="5.64035">
        <ele>497</ele>
        <time>2025-05-20T07:06:43Z</time>
      </trkpt>
      <trkpt lat="46.68846" lon="5.6405">
        <ele>500</ele>
        <time>2025-05-20T07:06:57Z</time>
      </trkpt>
      <trkpt lat="46.68858" lon="5.64056">
        <ele>500</ele>
        <time>2025-05-20T07:07:13Z</time>
      </trkpt>
      <trkpt lat="46.68867" lon="5.64026">
        <ele>491</ele>
        <time>2025-05-20T07:07:43Z</time>
      </trkpt>
      <trkpt lat="46.68874" lon="5.64022">
        <ele>487</ele>
        <time>2025-05-20T07:07:53Z</time>
      </trkpt>
      <trkpt lat="46.68866" lon="5.63994">
        <ele>482</ele>
        <time>2025-05-20T07:08:21Z</time>
      </trkpt>
      <trkpt lat="46.6886" lon="5.63983">
        <ele>482</ele>
        <time>2025-05-20T07:08:34Z</time>
      </trkpt>
      <trkpt lat="46.68862" lon="5.63916">
        <ele>463</ele>
        <time>2025-05-20T07:09:35Z</time>
      </trkpt>
      <trkpt lat="46.68857" lon="5.63897">
        <ele>469</ele>
        <time>2025-05-20T07:09:54Z</time>
      </trkpt>
      <trkpt lat="46.68856" lon="5.63876">
        <ele>470</ele>
        <time>2025-05-20T07:10:13Z</time>
      </trkpt>
      <trkpt lat="46.68861" lon="5.63832">
        <ele>468</ele>
        <time>2025-05-20T07:10:54Z</time>
      </trkpt>
      <trkpt lat="46.68879" lon="5.63785">
        <ele>473</ele>
        <time>2025-05-20T07:11:43Z</time>
      </trkpt>
      <trkpt lat="46.6895" lon="5.6374">
        <ele>478</ele>
        <time>2025-05-20T07:13:27Z</time>
      </trkpt>
      <trkpt lat="46.6897" lon="5.63787">
        <ele>445</ele>
        <time>2025-05-20T07:14:17Z</time>
      </trkpt>
      <trkpt lat="46.68985" lon="5.63749">
        <ele>471</ele>
        <time>2025-05-20T07:14:58Z</time>
      </trkpt>
      <trkpt lat="46.68983" lon="5.63739">
        <ele>476</ele>
        <time>2025-05-20T07:15:07Z</time>
      </trkpt>
      <trkpt lat="46.69005" lon="5.6375">
        <ele>469</ele>
        <time>2025-05-20T07:15:38Z</time>
      </trkpt>
      <trkpt lat="46.69019" lon="5.63731">
        <ele>478</ele>
        <time>2025-05-20T07:16:04Z</time>
      </trkpt>
      <trkpt lat="46.69022" lon="5.63767">
        <ele>455</ele>
        <time>2025-05-20T07:16:37Z</time>
      </trkpt>
      <trkpt lat="46.69013" lon="5.63788">
        <ele>440</ele>
        <time>2025-05-20T07:17:00Z</time>
      </trkpt>
      <trkpt lat="46.69019" lon="5.63801">
        <ele>429</ele>
        <time>2025-05-20T07:17:14Z</time>
      </trkpt>
      <trkpt lat="46.69005" lon="5.63819">
        <ele>417</ele>
        <time>2025-05-20T07:17:39Z</time>
      </trkpt>
      <trkpt lat="46.6902" lon="5.63848">
        <ele>400</ele>
        <time>2025-05-20T07:18:12Z</time>
      </trkpt>
      <trkpt lat="46.69041" lon="5.63849">
        <ele>396</ele>
        <time>2025-05-20T07:18:40Z</time>
      </trkpt>
      <trkpt lat="46.69036" lon="5.63862">
        <ele>394</ele>
        <time>2025-05-20T07:18:54Z</time>
      </trkpt>
      <trkpt lat="46.69072" lon="5.63864">
        <ele>388</ele>
        <time>2025-05-20T07:19:42Z</time>
      </trkpt>
      <trkpt lat="46.69084" lon="5.63874">
        <ele>384</ele>
        <time>2025-05-20T07:20:00Z</time>
      </trkpt>
      <trkpt lat="46.69081" lon="5.63891">
        <ele>382</ele>
        <time>2025-05-20T07:20:16Z</time>
      </trkpt>
      <trkpt lat="46.69039" lon="5.63904">
        <ele>385</ele>
        <time>2025-05-20T07:21:14Z</time>
      </trkpt>
      <trkpt lat="46.69026" lon="5.63919">
        <ele>385</ele>
        <time>2025-05-20T07:21:36Z</time>
      </trkpt>
      <trkpt lat="46.69019" lon="5.63943">
        <ele>397</ele>
        <time>2025-05-20T07:22:00Z</time>
      </trkpt>
      <trkpt lat="46.68971" lon="5.63942">
        <ele>410</ele>
        <time>2025-05-20T07:23:04Z</time>
      </trkpt>
      <trkpt lat="46.68949" lon="5.63914">
        <ele>401</ele>
        <time>2025-05-20T07:23:43Z</time>
      </trkpt>
      <trkpt lat="46.68951" lon="5.63959">
        <ele>426</ele>
        <time>2025-05-20T07:24:24Z</time>
      </trkpt>
      <trkpt lat="46.68972" lon="5.63997">
        <ele>441</ele>
        <time>2025-05-20T07:25:09Z</time>
      </trkpt>
      <trkpt lat="46.6893" lon="5.63984">
        <ele>448</ele>
        <time>2025-05-20T07:26:06Z</time>
      </trkpt>
      <trkpt lat="46.68955" lon="5.64027">
        <ele>468</ele>
        <time>2025-05-20T07:26:57Z</time>
      </trkpt>
      <trkpt lat="46.68891" lon="5.64013">
        <ele>479</ele>
        <time>2025-05-20T07:28:24Z</time>
      </trkpt>
      <trkpt lat="46.68898" lon="5.64034">
        <ele>486</ele>
        <time>2025-05-20T07:28:45Z</time>
      </trkpt>
      <trkpt lat="46.68881" lon="5.64023">
        <ele>486</ele>
        <time>2025-05-20T07:29:10Z</time>
      </trkpt>
      <trkpt lat="46.68868" lon="5.64034">
        <ele>493</ele>
        <time>2025-05-20T07:29:30Z</time>
      </trkpt>
      <trkpt lat="46.68857" lon="5.64062">
        <ele>502</ele>
        <time>2025-05-20T07:30:00Z</time>
      </trkpt>
      <trkpt lat="46.68847" lon="5.64055">
        <ele>501</ele>
        <time>2025-05-20T07:30:14Z</time>
      </trkpt>
      <trkpt lat="46.68849" lon="5.6403">
        <ele>496</ele>
        <time>2025-05-20T07:30:37Z</time>
      </trkpt>
      <trkpt lat="46.68839" lon="5.64046">
        <ele>501</ele>
        <time>2025-05-20T07:30:57Z</time>
      </trkpt>
      <trkpt lat="46.6884" lon="5.64017">
        <ele>497</ele>
        <time>2025-05-20T07:31:24Z</time>
      </trkpt>
      <trkpt lat="46.68829" lon="5.63999">
        <ele>497</ele>
        <time>2025-05-20T07:31:46Z</time>
      </trkpt>
      <trkpt lat="46.68829" lon="5.63982">
        <ele>496</ele>
        <time>2025-05-20T07:32:01Z</time>
      </trkpt>
      <trkpt lat="46.68795" lon="5.63986">
        <ele>498</ele>
        <time>2025-05-20T07:32:47Z</time>
      </trkpt>
      <trkpt lat="46.68791" lon="5.63996">
        <ele>499</ele>
        <time>2025-05-20T07:32:58Z</time>
      </trkpt>
      <trkpt lat="46.68811" lon="5.6409">
        <ele>504</ele>
        <time>2025-05-20T07:34:28Z</time>
      </trkpt>
      <trkpt lat="46.68829" lon="5.64225">
        <ele>505</ele>
        <time>2025-05-20T07:36:34Z</time>
      </trkpt>
      <trkpt lat="46.68877" lon="5.64268">
        <ele>511</ele>
        <time>2025-05-20T07:37:49Z</time>
      </trkpt>
      <trkpt lat="46.68896" lon="5.64382">
        <ele>511</ele>
        <time>2025-05-20T07:39:36Z</time>
      </trkpt>
      <trkpt lat="46.68917" lon="5.64405">
        <ele>512</ele>
        <time>2025-05-20T07:40:11Z</time>
      </trkpt>
      <trkpt lat="46.68966" lon="5.64422">
        <ele>516</ele>
        <time>2025-05-20T07:41:18Z</time>
      </trkpt>
      <trkpt lat="46.68988" lon="5.64435">
        <ele>517</ele>
        <time>2025-05-20T07:41:50Z</time>
      </trkpt>
      <trkpt lat="46.68999" lon="5.64457">
        <ele>517</ele>
        <time>2025-05-20T07:42:15Z</time>
      </trkpt>
      <trkpt lat="46.69033" lon="5.6455">
        <ele>517</ele>
        <time>2025-05-20T07:43:51Z</time>
      </trkpt>
      <trkpt lat="46.6907" lon="5.64583">
        <ele>518</ele>
        <time>2025-05-20T07:44:49Z</time>
      </trkpt>
      <trkpt lat="46.69094" lon="5.64643">
        <ele>516</ele>
        <time>2025-05-20T07:45:53Z</time>
      </trkpt>
      <trkpt lat="46.69097" lon="5.6471">
        <ele>516</ele>
        <time>2025-05-20T07:46:54Z</time>
      </trkpt>
      <trkpt lat="46.69148" lon="5.64766">
        <ele>516</ele>
        <time>2025-05-20T07:48:20Z</time>
      </trkpt>
      <trkpt lat="46.69169" lon="5.64795">
        <ele>516</ele>
        <time>2025-05-20T07:48:58Z</time>
      </trkpt>
      <trkpt lat="46.69249" lon="5.64875">
        <ele>515</ele>
        <time>2025-05-20T07:51:08Z</time>
      </trkpt>
      <trkpt lat="46.69294" lon="5.64879">
        <ele>513</ele>
        <time>2025-05-20T07:52:08Z</time>
      </trkpt>
      <trkpt lat="46.69316" lon="5.64912">
        <ele>512</ele>
        <time>2025-05-20T07:52:50Z</time>
      </trkpt>
      <trkpt lat="46.69368" lon="5.64961">
        <ele>512</ele>
        <time>2025-05-20T07:54:13Z</time>
      </trkpt>
      <trkpt lat="46.69458" lon="5.65038">
        <ele>515</ele>
        <time>2025-05-20T07:56:32Z</time>
      </trkpt>
      <trkpt lat="46.69469" lon="5.65087">
        <ele>515</ele>
        <time>2025-05-20T07:57:19Z</time>
      </trkpt>
      <trkpt lat="46.69489" lon="5.6513">
        <ele>513</ele>
        <time>2025-05-20T07:58:07Z</time>
      </trkpt>
      <trkpt lat="46.69526" lon="5.65182">
        <ele>510</ele>
        <time>2025-05-20T07:59:15Z</time>
      </trkpt>
      <trkpt lat="46.6955" lon="5.65263">
        <ele>508</ele>
        <time>2025-05-20T08:00:36Z</time>
      </trkpt>
      <trkpt lat="46.69566" lon="5.65341">
        <ele>504</ele>
        <time>2025-05-20T08:01:50Z</time>
      </trkpt>
      <trkpt lat="46.69551" lon="5.65435">
        <ele>502</ele>
        <time>2025-05-20T08:03:19Z</time>
      </trkpt>
      <trkpt lat="46.69568" lon="5.65517">
        <ele>499</ele>
        <time>2025-05-20T08:04:37Z</time>
      </trkpt>
      <trkpt lat="46.69548" lon="5.65603">
        <ele>499</ele>
        <time>2025-05-20T08:06:00Z</time>
      </trkpt>
      <trkpt lat="46.69548" lon="5.65696">
        <ele>495</ele>
        <time>2025-05-20T08:07:25Z</time>
      </trkpt>
      <trkpt lat="46.69541" lon="5.65797">
        <ele>498</ele>
        <time>2025-05-20T08:08:58Z</time>
      </trkpt>
      <trkpt lat="46.69539" lon="5.65881">
        <ele>503</ele>
        <time>2025-05-20T08:10:15Z</time>
      </trkpt>
      <trkpt lat="46.69558" lon="5.65953">
        <ele>504</ele>
        <time>2025-05-20T08:11:26Z</time>
      </trkpt>
      <trkpt lat="46.69601" lon="5.66003">
        <ele>508</ele>
        <time>2025-05-20T08:12:39Z</time>
      </trkpt>
      <trkpt lat="46.69719" lon="5.66006">
        <ele>506</ele>
        <time>2025-05-20T08:15:17Z</time>
      </trkpt>
      <trkpt lat="46.69758" lon="5.66063">
        <ele>510</ele>
        <time>2025-05-20T08:16:30Z</time>
      </trkpt>
      <trkpt lat="46.69805" lon="5.66074">
        <ele>509</ele>
        <time>2025-05-20T08:17:34Z</time>
      </trkpt>
      <trkpt lat="46.69862" lon="5.66035">
        <ele>495</ele>
        <time>2025-05-20T08:18:58Z</time>
      </trkpt>
      <trkpt lat="46.69924" lon="5.66016">
        <ele>503</ele>
        <time>2025-05-20T08:20:23Z</time>
      </trkpt>
      <trkpt lat="46.69938" lon="5.66005">
        <ele>504</ele>
        <time>2025-05-20T08:20:44Z</time>
      </trkpt>
      <trkpt lat="46.69977" lon="5.65899">
        <ele>492</ele>
        <time>2025-05-20T08:22:34Z</time>
      </trkpt>
      <trkpt lat="46.69988" lon="5.65851">
        <ele>481</ele>
        <time>2025-05-20T08:23:20Z</time>
      </trkpt>
      <trkpt lat="46.70029" lon="5.65811">
        <ele>484</ele>
        <time>2025-05-20T08:24:26Z</time>
      </trkpt>
      <trkpt lat="46.70086" lon="5.65764">
        <ele>499</ele>
        <time>2025-05-20T08:25:53Z</time>
      </trkpt>
      <trkpt lat="46.70129" lon="5.65713">
        <ele>490</ele>
        <time>2025-05-20T08:27:07Z</time>
      </trkpt>
      <trkpt lat="46.70179" lon="5.65675">
        <ele>495</ele>
        <time>2025-05-20T08:28:23Z</time>
      </trkpt>
      <trkpt lat="46.702" lon="5.65619">
        <ele>486</ele>
        <time>2025-05-20T08:29:21Z</time>
      </trkpt>
      <trkpt lat="46.70251" lon="5.65503">
        <ele>490</ele>
        <time>2025-05-20T08:31:27Z</time>
      </trkpt>
      <trkpt lat="46.70296" lon="5.6547">
        <ele>495</ele>
        <time>2025-05-20T08:32:34Z</time>
      </trkpt>
      <trkpt lat="46.70308" lon="5.65437">
        <ele>491</ele>
        <time>2025-05-20T08:33:08Z</time>
      </trkpt>
      <trkpt lat="46.70346" lon="5.65388">
        <ele>492</ele>
        <time>2025-05-20T08:34:16Z</time>
      </trkpt>
      <trkpt lat="46.70401" lon="5.653">
        <ele>483</ele>
        <time>2025-05-20T08:36:05Z</time>
      </trkpt>
      <trkpt lat="46.7043" lon="5.65237">
        <ele>464</ele>
        <time>2025-05-20T08:37:15Z</time>
      </trkpt>
      <trkpt lat="46.70432" lon="5.65281">
        <ele>483</ele>
        <time>2025-05-20T08:37:55Z</time>
      </trkpt>
      <trkpt lat="46.70454" lon="5.65322">
        <ele>499</ele>
        <time>2025-05-20T08:38:43Z</time>
      </trkpt>
      <trkpt lat="46.70439" lon="5.6545">
        <ele>512</ele>
        <time>2025-05-20T08:40:41Z</time>
      </trkpt>
      <trkpt lat="46.70456" lon="5.65523">
        <ele>511</ele>
        <time>2025-05-20T08:41:52Z</time>
      </trkpt>
      <trkpt lat="46.70456" lon="5.65545">
        <ele>511</ele>
        <time>2025-05-20T08:42:12Z</time>
      </trkpt>
      <trkpt lat="46.70485" lon="5.65572">
        <ele>510</ele>
        <time>2025-05-20T08:42:58Z</time>
      </trkpt>
      <trkpt lat="46.70499" lon="5.65616">
        <ele>509</ele>
        <time>2025-05-20T08:43:42Z</time>
      </trkpt>
      <trkpt lat="46.70492" lon="5.65677">
        <ele>509</ele>
        <time>2025-05-20T08:44:39Z</time>
      </trkpt>
      <trkpt lat="46.70518" lon="5.65708">
        <ele>506</ele>
        <time>2025-05-20T08:45:24Z</time>
      </trkpt>
      <trkpt lat="46.70546" lon="5.65711">
        <ele>502</ele>
        <time>2025-05-20T08:46:01Z</time>
      </trkpt>
      <trkpt lat="46.70586" lon="5.65744">
        <ele>503</ele>
        <time>2025-05-20T08:47:03Z</time>
      </trkpt>
      <trkpt lat="46.70614" lon="5.65792">
        <ele>498</ele>
        <time>2025-05-20T08:48:00Z</time>
      </trkpt>
      <trkpt lat="46.70636" lon="5.65878">
        <ele>499</ele>
        <time>2025-05-20T08:49:24Z</time>
      </trkpt>
      <trkpt lat="46.70648" lon="5.65916">
        <ele>499</ele>
        <time>2025-05-20T08:50:03Z</time>
      </trkpt>
      <trkpt lat="46.70638" lon="5.65936">
        <ele>500</ele>
        <time>2025-05-20T08:50:25Z</time>
      </trkpt>
      <trkpt lat="46.70656" lon="5.65946">
        <ele>499</ele>
        <time>2025-05-20T08:50:51Z</time>
      </trkpt>
      <trkpt lat="46.7069" lon="5.65972">
        <ele>500</ele>
        <time>2025-05-20T08:51:42Z</time>
      </trkpt>
      <trkpt lat="46.70711" lon="5.65959">
        <ele>499</ele>
        <time>2025-05-20T08:52:13Z</time>
      </trkpt>
      <trkpt lat="46.70717" lon="5.65971">
        <ele>500</ele>
        <time>2025-05-20T08:52:26Z</time>
      </trkpt>
      <trkpt lat="46.70799" lon="5.65927">
        <ele>495</ele>
        <time>2025-05-20T08:54:23Z</time>
      </trkpt>
      <trkpt lat="46.70858" lon="5.6589">
        <ele>490</ele>
        <time>2025-05-20T08:55:48Z</time>
      </trkpt>
      <trkpt lat="46.70893" lon="5.65844">
        <ele>489</ele>
        <time>2025-05-20T08:56:51Z</time>
      </trkpt>
      <trkpt lat="46.70929" lon="5.65786">
        <ele>489</ele>
        <time>2025-05-20T08:58:03Z</time>
      </trkpt>
      <trkpt lat="46.70963" lon="5.65692">
        <ele>484</ele>
        <time>2025-05-20T08:59:40Z</time>
      </trkpt>
      <trkpt lat="46.70974" lon="5.65644">
        <ele>484</ele>
        <time>2025-05-20T09:00:26Z</time>
      </trkpt>
      <trkpt lat="46.70984" lon="5.65491">
        <ele>485</ele>
        <time>2025-05-20T09:02:47Z</time>
      </trkpt>
      <trkpt lat="46.70995" lon="5.65388">
        <ele>492</ele>
        <time>2025-05-20T09:04:22Z</time>
      </trkpt>
      <trkpt lat="46.71031" lon="5.65181">
        <ele>492</ele>
        <time>2025-05-20T09:07:38Z</time>
      </trkpt>
      <trkpt lat="46.71047" lon="5.65126">
        <ele>486</ele>
        <time>2025-05-20T09:08:33Z</time>
      </trkpt>
      <trkpt lat="46.71068" lon="5.65086">
        <ele>485</ele>
        <time>2025-05-20T09:09:19Z</time>
      </trkpt>
      <trkpt lat="46.71121" lon="5.6501">
        <ele>480</ele>
        <time>2025-05-20T09:10:58Z</time>
      </trkpt>
      <trkpt lat="46.71184" lon="5.64939">
        <ele>484</ele>
        <time>2025-05-20T09:12:44Z</time>
      </trkpt>
      <trkpt lat="46.71289" lon="5.64773">
        <ele>482</ele>
        <time>2025-05-20T09:16:11Z</time>
      </trkpt>
      <trkpt lat="46.71363" lon="5.646">
        <ele>482</ele>
        <time>2025-05-20T09:19:17Z</time>
      </trkpt>
      <trkpt lat="46.71371" lon="5.64557">
        <ele>484</ele>
        <time>2025-05-20T09:19:58Z</time>
      </trkpt>
      <trkpt lat="46.71374" lon="5.64492">
        <ele>489</ele>
        <time>2025-05-20T09:20:58Z</time>
      </trkpt>
      <trkpt lat="46.71363" lon="5.64482">
        <ele>488</ele>
        <time>2025-05-20T09:21:15Z</time>
      </trkpt>
      <trkpt lat="46.71353" lon="5.64499">
        <ele>485</ele>
        <time>2025-05-20T09:21:35Z</time>
      </trkpt>
      <trkpt lat="46.71335" lon="5.64505">
        <ele>482</ele>
        <time>2025-05-20T09:22:00Z</time>
      </trkpt>
      <trkpt lat="46.71313" lon="5.64503">
        <ele>471</ele>
        <time>2025-05-20T09:22:30Z</time>
      </trkpt>
      <trkpt lat="46.71294" lon="5.64486">
        <ele>460</ele>
        <time>2025-05-20T09:22:59Z</time>
      </trkpt>
      <trkpt lat="46.7128" lon="5.64461">
        <ele>445</ele>
        <time>2025-05-20T09:23:29Z</time>
      </trkpt>
      <trkpt lat="46.7127" lon="5.64461">
        <ele>437</ele>
        <time>2025-05-20T09:23:42Z</time>
      </trkpt>
      <trkpt lat="46.71262" lon="5.64477">
        <ele>437</ele>
        <time>2025-05-20T09:24:00Z</time>
      </trkpt>
      <trkpt lat="46.71243" lon="5.64471">
        <ele>418</ele>
        <time>2025-05-20T09:24:26Z</time>
      </trkpt>
      <trkpt lat="46.71262" lon="5.64481">
        <ele>438</ele>
        <time>2025-05-20T09:24:53Z</time>
      </trkpt>
      <trkpt lat="46.71273" lon="5.64456">
        <ele>438</ele>
        <time>2025-05-20T09:25:20Z</time>
      </trkpt>
      <trkpt lat="46.71286" lon="5.64462">
        <ele>450</ele>
        <time>2025-05-20T09:25:39Z</time>
      </trkpt>
      <trkpt lat="46.71302" lon="5.64489">
        <ele>465</ele>
        <time>2025-05-20T09:26:11Z</time>
      </trkpt>
      <trkpt lat="46.7132" lon="5.64505">
        <ele>475</ele>
        <time>2025-05-20T09:26:39Z</time>
      </trkpt>
      <trkpt lat="46.71346" lon="5.64502">
        <ele>484</ele>
        <time>2025-05-20T09:27:14Z</time>
      </trkpt>
      <trkpt lat="46.71366" lon="5.64487">
        <ele>488</ele>
        <time>2025-05-20T09:27:44Z</time>
      </trkpt>
      <trkpt lat="46.71357" lon="5.64445">
        <ele>491</ele>
        <time>2025-05-20T09:28:24Z</time>
      </trkpt>
      <trkpt lat="46.71375" lon="5.64481">
        <ele>490</ele>
        <time>2025-05-20T09:29:05Z</time>
      </trkpt>
      <trkpt lat="46.71373" lon="5.64544">
        <ele>485</ele>
        <time>2025-05-20T09:30:03Z</time>
      </trkpt>
      <trkpt lat="46.71387" lon="5.64585">
        <ele>486</ele>
        <time>2025-05-20T09:30:45Z</time>
      </trkpt>
      <trkpt lat="46.71462" lon="5.64627">
        <ele>492</ele>
        <time>2025-05-20T09:32:32Z</time>
      </trkpt>
      <trkpt lat="46.71499" lon="5.6467">
        <ele>492</ele>
        <time>2025-05-20T09:33:35Z</time>
      </trkpt>
      <trkpt lat="46.71518" lon="5.64686">
        <ele>493</ele>
        <time>2025-05-20T09:34:04Z</time>
      </trkpt>
      <trkpt lat="46.7161" lon="5.64715">
        <ele>492</ele>
        <time>2025-05-20T09:36:10Z</time>
      </trkpt>
      <trkpt lat="46.717" lon="5.64789">
        <ele>492</ele>
        <time>2025-05-20T09:38:28Z</time>
      </trkpt>
      <trkpt lat="46.71714" lon="5.64809">
        <ele>492</ele>
        <time>2025-05-20T09:38:54Z</time>
      </trkpt>
      <trkpt lat="46.71716" lon="5.64829">
        <ele>493</ele>
        <time>2025-05-20T09:39:13Z</time>
      </trkpt>
      <trkpt lat="46.71702" lon="5.64888">
        <ele>493</ele>
        <time>2025-05-20T09:40:10Z</time>
      </trkpt>
      <trkpt lat="46.71702" lon="5.64928">
        <ele>494</ele>
        <time>2025-05-20T09:40:46Z</time>
      </trkpt>
      <trkpt lat="46.71716" lon="5.64996">
        <ele>493</ele>
        <time>2025-05-20T09:41:51Z</time>
      </trkpt>
      <trkpt lat="46.71731" lon="5.65031">
        <ele>494</ele>
        <time>2025-05-20T09:42:29Z</time>
      </trkpt>
      <trkpt lat="46.71769" lon="5.65087">
        <ele>494</ele>
        <time>2025-05-20T09:43:41Z</time>
      </trkpt>
      <trkpt lat="46.71776" lon="5.65129">
        <ele>495</ele>
        <time>2025-05-20T09:44:21Z</time>
      </trkpt>
      <trkpt lat="46.71776" lon="5.65184">
        <ele>495</ele>
        <time>2025-05-20T09:45:11Z</time>
      </trkpt>
      <trkpt lat="46.71772" lon="5.6523">
        <ele>495</ele>
        <time>2025-05-20T09:45:53Z</time>
      </trkpt>
      <trkpt lat="46.71777" lon="5.6527">
        <ele>496</ele>
        <time>2025-05-20T09:46:31Z</time>
      </trkpt>
      <trkpt lat="46.71784" lon="5.65293">
        <ele>496</ele>
        <time>2025-05-20T09:46:54Z</time>
      </trkpt>
      <trkpt lat="46.71794" lon="5.65306">
        <ele>497</ele>
        <time>2025-05-20T09:47:11Z</time>
      </trkpt>
      <trkpt lat="46.71851" lon="5.65334">
        <ele>497</ele>
        <time>2025-05-20T09:48:32Z</time>
      </trkpt>
      <trkpt lat="46.71867" lon="5.65346">
        <ele>497</ele>
        <time>2025-05-20T09:48:56Z</time>
      </trkpt>
      <trkpt lat="46.719" lon="5.65399">
        <ele>497</ele>
        <time>2025-05-20T09:50:01Z</time>
      </trkpt>
      <trkpt lat="46.71975" lon="5.65507">
        <ele>496</ele>
        <time>2025-05-20T09:52:22Z</time>
      </trkpt>
      <trkpt lat="46.72001" lon="5.65447">
        <ele>497</ele>
        <time>2025-05-20T09:53:27Z</time>
      </trkpt>
      <trkpt lat="46.72053" lon="5.6542">
        <ele>496</ele>
        <time>2025-05-20T09:54:40Z</time>
      </trkpt>
      <trkpt lat="46.72079" lon="5.6543">
        <ele>495</ele>
        <time>2025-05-20T09:55:16Z</time>
      </trkpt>
      <trkpt lat="46.72088" lon="5.6545">
        <ele>495</ele>
        <time>2025-05-20T09:55:38Z</time>
      </trkpt>
      <trkpt lat="46.72101" lon="5.65517">
        <ele>496</ele>
        <time>2025-05-20T09:56:42Z</time>
      </trkpt>
      <trkpt lat="46.72111" lon="5.65594">
        <ele>498</ele>
        <time>2025-05-20T09:57:54Z</time>
      </trkpt>
      <trkpt lat="46.72114" lon="5.65662">
        <ele>499</ele>
        <time>2025-05-20T09:58:56Z</time>
      </trkpt>
      <trkpt lat="46.72135" lon="5.65752">
        <ele>500</ele>
        <time>2025-05-20T10:00:23Z</time>
      </trkpt>
      <trkpt lat="46.72188" lon="5.65898">
        <ele>500</ele>
        <time>2025-05-20T10:02:54Z</time>
      </trkpt>
      <trkpt lat="46.72236" lon="5.6594">
        <ele>498</ele>
        <time>2025-05-20T10:04:09Z</time>
      </trkpt>
      <trkpt lat="46.72271" lon="5.65957">
        <ele>497</ele>
        <time>2025-05-20T10:04:58Z</time>
      </trkpt>
      <trkpt lat="46.7234" lon="5.65984">
        <ele>496</ele>
        <time>2025-05-20T10:06:33Z</time>
      </trkpt>
      <trkpt lat="46.72362" lon="5.66">
        <ele>495</ele>
        <time>2025-05-20T10:07:06Z</time>
      </trkpt>
      <trkpt lat="46.72474" lon="5.66117">
        <ele>497</ele>
        <time>2025-05-20T10:10:10Z</time>
      </trkpt>
      <trkpt lat="46.72533" lon="5.66159">
        <ele>499</ele>
        <time>2025-05-20T10:11:38Z</time>
      </trkpt>
      <trkpt lat="46.72573" lon="5.66235">
        <ele>500</ele>
        <time>2025-05-20T10:13:05Z</time>
      </trkpt>
      <trkpt lat="46.72569" lon="5.66302">
        <ele>499</ele>
        <time>2025-05-20T10:14:07Z</time>
      </trkpt>
      <trkpt lat="46.72594" lon="5.66374">
        <ele>496</ele>
        <time>2025-05-20T10:15:21Z</time>
      </trkpt>
      <trkpt lat="46.72623" lon="5.66398">
        <ele>497</ele>
        <time>2025-05-20T10:16:05Z</time>
      </trkpt>
      <trkpt lat="46.72664" lon="5.664">
        <ele>499</ele>
        <time>2025-05-20T10:17:00Z</time>
      </trkpt>
      <trkpt lat="46.72757" lon="5.66281">
        <ele>498</ele>
        <time>2025-05-20T10:19:45Z</time>
      </trkpt>
      <trkpt lat="46.72844" lon="5.66236">
        <ele>500</ele>
        <time>2025-05-20T10:21:48Z</time>
      </trkpt>
      <trkpt lat="46.72889" lon="5.662">
        <ele>497</ele>
        <time>2025-05-20T10:22:57Z</time>
      </trkpt>
      <trkpt lat="46.72918" lon="5.66209">
        <ele>496</ele>
        <time>2025-05-20T10:23:36Z</time>
      </trkpt>
      <trkpt lat="46.73016" lon="5.66316">
        <ele>499</ele>
        <time>2025-05-20T10:26:19Z</time>
      </trkpt>
      <trkpt lat="46.73104" lon="5.6633">
        <ele>502</ele>
        <time>2025-05-20T10:28:18Z</time>
      </trkpt>
      <trkpt lat="46.73121" lon="5.66304">
        <ele>502</ele>
        <time>2025-05-20T10:28:50Z</time>
      </trkpt>
      <trkpt lat="46.73168" lon="5.66341">
        <ele>503</ele>
        <time>2025-05-20T10:30:02Z</time>
      </trkpt>
      <trkpt lat="46.73189" lon="5.66398">
        <ele>504</ele>
        <time>2025-05-20T10:31:01Z</time>
      </trkpt>
      <trkpt lat="46.73207" lon="5.66463">
        <ele>506</ele>
        <time>2025-05-20T10:32:05Z</time>
      </trkpt>
      <trkpt lat="46.73235" lon="5.66497">
        <ele>508</ele>
        <time>2025-05-20T10:32:54Z</time>
      </trkpt>
      <trkpt lat="46.73246" lon="5.66501">
        <ele>509</ele>
        <time>2025-05-20T10:33:09Z</time>
      </trkpt>
      <trkpt lat="46.73274" lon="5.66492">
        <ele>509</ele>
        <time>2025-05-20T10:33:47Z</time>
      </trkpt>
      <trkpt lat="46.73374" lon="5.66474">
        <ele>509</ele>
        <time>2025-05-20T10:36:01Z</time>
      </trkpt>
      <trkpt lat="46.73541" lon="5.66566">
        <ele>504</ele>
        <time>2025-05-20T10:40:00Z</time>
      </trkpt>
      <trkpt lat="46.73539" lon="5.66648">
        <ele>504</ele>
        <time>2025-05-20T10:41:15Z</time>
      </trkpt>
      <trkpt lat="46.73772" lon="5.66689">
        <ele>503</ele>
        <time>2025-05-20T10:46:28Z</time>
      </trkpt>
      <trkpt lat="46.73851" lon="5.66719">
        <ele>504</ele>
        <time>2025-05-20T10:48:17Z</time>
      </trkpt>
      <trkpt lat="46.73888" lon="5.66781">
        <ele>504</ele>
        <time>2025-05-20T10:49:32Z</time>
      </trkpt>
      <trkpt lat="46.73916" lon="5.66864">
        <ele>505</ele>
        <time>2025-05-20T10:50:57Z</time>
      </trkpt>
      <trkpt lat="46.73986" lon="5.6695">
        <ele>505</ele>
        <time>2025-05-20T10:52:59Z</time>
      </trkpt>
      <trkpt lat="46.74057" lon="5.66986">
        <ele>509</ele>
        <time>2025-05-20T10:54:39Z</time>
      </trkpt>
      <trkpt lat="46.74214" lon="5.66967">
        <ele>510</ele>
        <time>2025-05-20T10:58:09Z</time>
      </trkpt>
      <trkpt lat="46.74247" lon="5.66984">
        <ele>510</ele>
        <time>2025-05-20T10:58:56Z</time>
      </trkpt>
      <trkpt lat="46.74259" lon="5.67019">
        <ele>511</ele>
        <time>2025-05-20T10:59:32Z</time>
      </trkpt>
      <trkpt lat="46.74248" lon="5.67072">
        <ele>513</ele>
        <time>2025-05-20T11:00:22Z</time>
      </trkpt>
      <trkpt lat="46.74248" lon="5.67126">
        <ele>516</ele>
        <time>2025-05-20T11:01:12Z</time>
      </trkpt>
      <trkpt lat="46.7431" lon="5.67206">
        <ele>517</ele>
        <time>2025-05-20T11:03:02Z</time>
      </trkpt>
      <trkpt lat="46.74315" lon="5.67248">
        <ele>517</ele>
        <time>2025-05-20T11:03:41Z</time>
      </trkpt>
      <trkpt lat="46.74332" lon="5.6729">
        <ele>517</ele>
        <time>2025-05-20T11:04:26Z</time>
      </trkpt>
      <trkpt lat="46.7437" lon="5.67339">
        <ele>515</ele>
        <time>2025-05-20T11:05:34Z</time>
      </trkpt>
      <trkpt lat="46.74376" lon="5.67339">
        <ele>515</ele>
        <time>2025-05-20T11:05:42Z</time>
      </trkpt>
      <trkpt lat="46.74384" lon="5.67333">
        <ele>514</ele>
        <time>2025-05-20T11:05:54Z</time>
      </trkpt>
      <trkpt lat="46.74404" lon="5.67361">
        <ele>514</ele>
        <time>2025-05-20T11:06:31Z</time>
      </trkpt>
      <trkpt lat="46.74412" lon="5.6738">
        <ele>515</ele>
        <time>2025-05-20T11:06:51Z</time>
      </trkpt>
      <trkpt lat="46.74408" lon="5.67448">
        <ele>519</ele>
        <time>2025-05-20T11:07:53Z</time>
      </trkpt>
      <trkpt lat="46.7438" lon="5.67497">
        <ele>520</ele>
        <time>2025-05-20T11:08:52Z</time>
      </trkpt>
      <trkpt lat="46.74379" lon="5.67545">
        <ele>519</ele>
        <time>2025-05-20T11:09:36Z</time>
      </trkpt>
      <trkpt lat="46.74394" lon="5.67577">
        <ele>519</ele>
        <time>2025-05-20T11:10:11Z</time>
      </trkpt>
      <trkpt lat="46.74455" lon="5.67635">
        <ele>521</ele>
        <time>2025-05-20T11:11:48Z</time>
      </trkpt>
      <trkpt lat="46.74451" lon="5.67702">
        <ele>521</ele>
        <time>2025-05-20T11:12:50Z</time>
      </trkpt>
      <trkpt lat="46.74461" lon="5.67772">
        <ele>521</ele>
        <time>2025-05-20T11:13:55Z</time>
      </trkpt>
      <trkpt lat="46.74482" lon="5.67815">
        <ele>519</ele>
        <time>2025-05-20T11:14:43Z</time>
      </trkpt>
      <trkpt lat="46.74509" lon="5.67956">
        <ele>513</ele>
        <time>2025-05-20T11:16:57Z</time>
      </trkpt>
      <trkpt lat="46.74508" lon="5.68056">
        <ele>516</ele>
        <time>2025-05-20T11:18:29Z</time>
      </trkpt>
      <trkpt lat="46.74538" lon="5.68097">
        <ele>501</ele>
        <time>2025-05-20T11:19:24Z</time>
      </trkpt>
      <trkpt lat="46.74512" lon="5.68142">
        <ele>517</ele>
        <time>2025-05-20T11:20:17Z</time>
      </trkpt>
      <trkpt lat="46.7453" lon="5.6819">
        <ele>513</ele>
        <time>2025-05-20T11:21:07Z</time>
      </trkpt>
      <trkpt lat="46.74547" lon="5.68282">
        <ele>520</ele>
        <time>2025-05-20T11:22:35Z</time>
      </trkpt>
      <trkpt lat="46.74618" lon="5.68384">
        <ele>526</ele>
        <time>2025-05-20T11:24:47Z</time>
      </trkpt>
      <trkpt lat="46.74747" lon="5.68446">
        <ele>540</ele>
        <time>2025-05-20T11:27:49Z</time>
      </trkpt>
      <trkpt lat="46.74906" lon="5.68454">
        <ele>546</ele>
        <time>2025-05-20T11:31:21Z</time>
      </trkpt>
      <trkpt lat="46.74968" lon="5.68362">
        <ele>531</ele>
        <time>2025-05-20T11:33:19Z</time>
      </trkpt>
      <trkpt lat="46.75027" lon="5.68331">
        <ele>533</ele>
        <time>2025-05-20T11:34:43Z</time>
      </trkpt>
      <trkpt lat="46.75165" lon="5.68406">
        <ele>532</ele>
        <time>2025-05-20T11:37:59Z</time>
      </trkpt>
      <trkpt lat="46.75266" lon="5.68422">
        <ele>529</ele>
        <time>2025-05-20T11:40:15Z</time>
      </trkpt>
      <trkpt lat="46.75336" lon="5.68357">
        <ele>528</ele>
        <time>2025-05-20T11:42:06Z</time>
      </trkpt>
      <trkpt lat="46.75354" lon="5.68167">
        <ele>532</ele>
        <time>2025-05-20T11:45:01Z</time>
      </trkpt>
      <trkpt lat="46.75298" lon="5.67971">
        <ele>532</ele>
        <time>2025-05-20T11:48:15Z</time>
      </trkpt>
      <trkpt lat="46.75257" lon="5.67901">
        <ele>530</ele>
        <time>2025-05-20T11:49:39Z</time>
      </trkpt>
      <trkpt lat="46.75296" lon="5.67818">
        <ele>523</ele>
        <time>2025-05-20T11:51:11Z</time>
      </trkpt>
      <trkpt lat="46.75368" lon="5.67747">
        <ele>515</ele>
        <time>2025-05-20T11:53:07Z</time>
      </trkpt>
      <trkpt lat="46.75298" lon="5.67802">
        <ele>519</ele>
        <time>2025-05-20T11:54:53Z</time>
      </trkpt>
      <trkpt lat="46.75244" lon="5.6789">
        <ele>528</ele>
        <time>2025-05-20T11:56:41Z</time>
      </trkpt>
      <trkpt lat="46.75205" lon="5.6787">
        <ele>518</ele>
        <time>2025-05-20T11:57:36Z</time>
      </trkpt>
      <trkpt lat="46.75074" lon="5.67893">
        <ele>492</ele>
        <time>2025-05-20T12:00:33Z</time>
      </trkpt>
      <trkpt lat="46.75015" lon="5.67929">
        <ele>474</ele>
        <time>2025-05-20T12:01:58Z</time>
      </trkpt>
      <trkpt lat="46.75079" lon="5.67706">
        <ele>421</ele>
        <time>2025-05-20T12:05:39Z</time>
      </trkpt>
      <trkpt lat="46.75013" lon="5.67808">
        <ele>425</ele>
        <time>2025-05-20T12:07:47Z</time>
      </trkpt>
      <trkpt lat="46.7495" lon="5.67944">
        <ele>433</ele>
        <time>2025-05-20T12:10:17Z</time>
      </trkpt>
      <trkpt lat="46.74866" lon="5.68245">
        <ele>460</ele>
        <time>2025-05-20T12:15:14Z</time>
      </trkpt>
      <trkpt lat="46.74851" lon="5.68284">
        <ele>472</ele>
        <time>2025-05-20T12:15:55Z</time>
      </trkpt>
      <trkpt lat="46.7482" lon="5.68301">
        <ele>474</ele>
        <time>2025-05-20T12:16:40Z</time>
      </trkpt>
      <trkpt lat="46.74757" lon="5.68295">
        <ele>467</ele>
        <time>2025-05-20T12:18:04Z</time>
      </trkpt>
      <trkpt lat="46.74693" lon="5.68316">
        <ele>490</ele>
        <time>2025-05-20T12:19:31Z</time>
      </trkpt>
      <trkpt lat="46.74655" lon="5.68315">
        <ele>495</ele>
        <time>2025-05-20T12:20:22Z</time>
      </trkpt>
      <trkpt lat="46.74617" lon="5.68319">
        <ele>511</ele>
        <time>2025-05-20T12:21:13Z</time>
      </trkpt>
      <trkpt lat="46.74586" lon="5.68266">
        <ele>511</ele>
        <time>2025-05-20T12:22:17Z</time>
      </trkpt>
      <trkpt lat="46.74594" lon="5.68183">
        <ele>483</ele>
        <time>2025-05-20T12:23:33Z</time>
      </trkpt>
      <trkpt lat="46.74557" lon="5.6805">
        <ele>486</ele>
        <time>2025-05-20T12:25:45Z</time>
      </trkpt>
      <trkpt lat="46.74549" lon="5.67847">
        <ele>482</ele>
        <time>2025-05-20T12:28:50Z</time>
      </trkpt>
      <trkpt lat="46.74557" lon="5.67749">
        <ele>491</ele>
        <time>2025-05-20T12:30:21Z</time>
      </trkpt>
      <trkpt lat="46.74585" lon="5.67634">
        <ele>495</ele>
        <time>2025-05-20T12:32:12Z</time>
      </trkpt>
      <trkpt lat="46.74619" lon="5.67512">
        <ele>477</ele>
        <time>2025-05-20T12:34:13Z</time>
      </trkpt>
      <trkpt lat="46.74627" lon="5.67442">
        <ele>470</ele>
        <time>2025-05-20T12:35:18Z</time>
      </trkpt>
      <trkpt lat="46.74617" lon="5.67421">
        <ele>476</ele>
        <time>2025-05-20T12:35:41Z</time>
      </trkpt>
      <trkpt lat="46.74559" lon="5.674">
        <ele>496</ele>
        <time>2025-05-20T12:37:01Z</time>
      </trkpt>
      <trkpt lat="46.74537" lon="5.67385">
        <ele>500</ele>
        <time>2025-05-20T12:37:33Z</time>
      </trkpt>
      <trkpt lat="46.74463" lon="5.67256">
        <ele>496</ele>
        <time>2025-05-20T12:40:07Z</time>
      </trkpt>
      <trkpt lat="46.74452" lon="5.67239">
        <ele>497</ele>
        <time>2025-05-20T12:40:28Z</time>
      </trkpt>
      <trkpt lat="46.74446" lon="5.67234">
        <ele>499</ele>
        <time>2025-05-20T12:40:38Z</time>
      </trkpt>
      <trkpt lat="46.74451" lon="5.67195">
        <ele>496</ele>
        <time>2025-05-20T12:41:14Z</time>
      </trkpt>
      <trkpt lat="46.7444" lon="5.67167">
        <ele>500</ele>
        <time>2025-05-20T12:41:43Z</time>
      </trkpt>
      <trkpt lat="46.74439" lon="5.67146">
        <ele>499</ele>
        <time>2025-05-20T12:42:03Z</time>
      </trkpt>
      <trkpt lat="46.74437" lon="5.67164">
        <ele>501</ele>
        <time>2025-05-20T12:42:19Z</time>
      </trkpt>
      <trkpt lat="46.74448" lon="5.6719">
        <ele>497</ele>
        <time>2025-05-20T12:42:47Z</time>
      </trkpt>
      <trkpt lat="46.74444" lon="5.67236">
        <ele>499</ele>
        <time>2025-05-20T12:43:30Z</time>
      </trkpt>
      <trkpt lat="46.74439" lon="5.67237">
        <ele>501</ele>
        <time>2025-05-20T12:43:36Z</time>
      </trkpt>
      <trkpt lat="46.74404" lon="5.67307">
        <ele>511</ele>
        <time>2025-05-20T12:44:56Z</time>
      </trkpt>
      <trkpt lat="46.74381" lon="5.67339">
        <ele>514</ele>
        <time>2025-05-20T12:45:38Z</time>
      </trkpt>
      <trkpt lat="46.74371" lon="5.67336">
        <ele>515</ele>
        <time>2025-05-20T12:45:52Z</time>
      </trkpt>
      <trkpt lat="46.74349" lon="5.67315">
        <ele>516</ele>
        <time>2025-05-20T12:46:27Z</time>
      </trkpt>
      <trkpt lat="46.74329" lon="5.6728">
        <ele>517</ele>
        <time>2025-05-20T12:47:08Z</time>
      </trkpt>
      <trkpt lat="46.7431" lon="5.67232">
        <ele>517</ele>
        <time>2025-05-20T12:47:59Z</time>
      </trkpt>
      <trkpt lat="46.74307" lon="5.67203">
        <ele>517</ele>
        <time>2025-05-20T12:48:26Z</time>
      </trkpt>
      <trkpt lat="46.74245" lon="5.67132">
        <ele>516</ele>
        <time>2025-05-20T12:50:11Z</time>
      </trkpt>
      <trkpt lat="46.74256" lon="5.67023">
        <ele>511</ele>
        <time>2025-05-20T12:51:52Z</time>
      </trkpt>
      <trkpt lat="46.7425" lon="5.66992">
        <ele>510</ele>
        <time>2025-05-20T12:52:21Z</time>
      </trkpt>
      <trkpt lat="46.74199" lon="5.66973">
        <ele>510</ele>
        <time>2025-05-20T12:53:32Z</time>
      </trkpt>
      <trkpt lat="46.74054" lon="5.66994">
        <ele>509</ele>
        <time>2025-05-20T12:56:46Z</time>
      </trkpt>
      <trkpt lat="46.7397" lon="5.66945">
        <ele>506</ele>
        <time>2025-05-20T12:58:47Z</time>
      </trkpt>
      <trkpt lat="46.73922" lon="5.66878">
        <ele>505</ele>
        <time>2025-05-20T13:00:15Z</time>
      </trkpt>
      <trkpt lat="46.73887" lon="5.66785">
        <ele>504</ele>
        <time>2025-05-20T13:01:52Z</time>
      </trkpt>
      <trkpt lat="46.73846" lon="5.66721">
        <ele>504</ele>
        <time>2025-05-20T13:03:13Z</time>
      </trkpt>
      <trkpt lat="46.73767" lon="5.66693">
        <ele>503</ele>
        <time>2025-05-20T13:05:01Z</time>
      </trkpt>
      <trkpt lat="46.7366" lon="5.66677">
        <ele>506</ele>
        <time>2025-05-20T13:07:25Z</time>
      </trkpt>
      <trkpt lat="46.73535" lon="5.66653">
        <ele>504</ele>
        <time>2025-05-20T13:10:13Z</time>
      </trkpt>
      <trkpt lat="46.73546" lon="5.66562">
        <ele>505</ele>
        <time>2025-05-20T13:11:37Z</time>
      </trkpt>
      <trkpt lat="46.73448" lon="5.66539">
        <ele>507</ele>
        <time>2025-05-20T13:13:50Z</time>
      </trkpt>
      <trkpt lat="46.73383" lon="5.66473">
        <ele>509</ele>
        <time>2025-05-20T13:15:35Z</time>
      </trkpt>
      <trkpt lat="46.73266" lon="5.66499">
        <ele>509</ele>
        <time>2025-05-20T13:18:13Z</time>
      </trkpt>
      <trkpt lat="46.73214" lon="5.66478">
        <ele>507</ele>
        <time>2025-05-20T13:19:25Z</time>
      </trkpt>
      <trkpt lat="46.73193" lon="5.66391">
        <ele>504</ele>
        <time>2025-05-20T13:20:50Z</time>
      </trkpt>
      <trkpt lat="46.73174" lon="5.6634">
        <ele>503</ele>
        <time>2025-05-20T13:21:43Z</time>
      </trkpt>
      <trkpt lat="46.73127" lon="5.66294">
        <ele>502</ele>
        <time>2025-05-20T13:22:58Z</time>
      </trkpt>
      <trkpt lat="46.73099" lon="5.66331">
        <ele>502</ele>
        <time>2025-05-20T13:23:49Z</time>
      </trkpt>
      <trkpt lat="46.73029" lon="5.66329">
        <ele>500</ele>
        <time>2025-05-20T13:25:22Z</time>
      </trkpt>
      <trkpt lat="46.72917" lon="5.66199">
        <ele>496</ele>
        <time>2025-05-20T13:28:33Z</time>
      </trkpt>
      <trkpt lat="46.72889" lon="5.66193">
        <ele>497</ele>
        <time>2025-05-20T13:29:11Z</time>
      </trkpt>
      <trkpt lat="46.72851" lon="5.66231">
        <ele>499</ele>
        <time>2025-05-20T13:30:12Z</time>
      </trkpt>
      <trkpt lat="46.72785" lon="5.66262">
        <ele>498</ele>
        <time>2025-05-20T13:31:45Z</time>
      </trkpt>
      <trkpt lat="46.7266" lon="5.66414">
        <ele>499</ele>
        <time>2025-05-20T13:35:22Z</time>
      </trkpt>
      <trkpt lat="46.72601" lon="5.66374">
        <ele>497</ele>
        <time>2025-05-20T13:36:49Z</time>
      </trkpt>
      <trkpt lat="46.72569" lon="5.66317">
        <ele>498</ele>
        <time>2025-05-20T13:37:56Z</time>
      </trkpt>
      <trkpt lat="46.72569" lon="5.66246">
        <ele>501</ele>
        <time>2025-05-20T13:39:01Z</time>
      </trkpt>
      <trkpt lat="46.72555" lon="5.66193">
        <ele>500</ele>
        <time>2025-05-20T13:39:53Z</time>
      </trkpt>
      <trkpt lat="46.72524" lon="5.6615">
        <ele>499</ele>
        <time>2025-05-20T13:40:50Z</time>
      </trkpt>
      <trkpt lat="46.72508" lon="5.65853">
        <ele>496</ele>
        <time>2025-05-20T13:45:23Z</time>
      </trkpt>
      <trkpt lat="46.72515" lon="5.65781">
        <ele>497</ele>
        <time>2025-05-20T13:46:29Z</time>
      </trkpt>
      <trkpt lat="46.72499" lon="5.65639">
        <ele>498</ele>
        <time>2025-05-20T13:48:41Z</time>
      </trkpt>
      <trkpt lat="46.72444" lon="5.65557">
        <ele>498</ele>
        <time>2025-05-20T13:50:26Z</time>
      </trkpt>
      <trkpt lat="46.72399" lon="5.65411">
        <ele>496</ele>
        <time>2025-05-20T13:52:52Z</time>
      </trkpt>
      <trkpt lat="46.72315" lon="5.65313">
        <ele>495</ele>
        <time>2025-05-20T13:55:16Z</time>
      </trkpt>
      <trkpt lat="46.7229" lon="5.65165">
        <ele>496</ele>
        <time>2025-05-20T13:57:35Z</time>
      </trkpt>
      <trkpt lat="46.72244" lon="5.65037">
        <ele>496</ele>
        <time>2025-05-20T13:59:48Z</time>
      </trkpt>
      <trkpt lat="46.72241" lon="5.64876">
        <ele>495</ele>
        <time>2025-05-20T14:02:15Z</time>
      </trkpt>
      <trkpt lat="46.72202" lon="5.64829">
        <ele>494</ele>
        <time>2025-05-20T14:03:22Z</time>
      </trkpt>
      <trkpt lat="46.72169" lon="5.64622">
        <ele>488</ele>
        <time>2025-05-20T14:06:37Z</time>
      </trkpt>
      <trkpt lat="46.721" lon="5.64546">
        <ele>488</ele>
        <time>2025-05-20T14:08:32Z</time>
      </trkpt>
      <trkpt lat="46.71923" lon="5.64518">
        <ele>492</ele>
        <time>2025-05-20T14:12:30Z</time>
      </trkpt>
      <trkpt lat="46.71849" lon="5.64537">
        <ele>493</ele>
        <time>2025-05-20T14:14:10Z</time>
      </trkpt>
      <trkpt lat="46.71769" lon="5.64485">
        <ele>494</ele>
        <time>2025-05-20T14:16:07Z</time>
      </trkpt>
      <trkpt lat="46.71785" lon="5.64465">
        <ele>495</ele>
        <time>2025-05-20T14:16:35Z</time>
      </trkpt>
      <trkpt lat="46.71809" lon="5.64379">
        <ele>496</ele>
        <time>2025-05-20T14:18:00Z</time>
      </trkpt>
      <trkpt lat="46.71822" lon="5.64316">
        <ele>494</ele>
        <time>2025-05-20T14:19:00Z</time>
      </trkpt>
      <trkpt lat="46.71824" lon="5.6428">
        <ele>492</ele>
        <time>2025-05-20T14:19:33Z</time>
      </trkpt>
      <trkpt lat="46.71836" lon="5.64244">
        <ele>489</ele>
        <time>2025-05-20T14:20:10Z</time>
      </trkpt>
      <trkpt lat="46.71854" lon="5.64224">
        <ele>488</ele>
        <time>2025-05-20T14:20:40Z</time>
      </trkpt>
      <trkpt lat="46.71893" lon="5.64217">
        <ele>487</ele>
        <time>2025-05-20T14:21:33Z</time>
      </trkpt>
      <trkpt lat="46.71931" lon="5.64055">
        <ele>477</ele>
        <time>2025-05-20T14:24:09Z</time>
      </trkpt>
      <trkpt lat="46.71962" lon="5.63979">
        <ele>468</ele>
        <time>2025-05-20T14:25:30Z</time>
      </trkpt>
      <trkpt lat="46.72066" lon="5.6396">
        <ele>453</ele>
        <time>2025-05-20T14:27:50Z</time>
      </trkpt>
      <trkpt lat="46.71795" lon="5.63718">
        <ele>387</ele>
        <time>2025-05-20T14:34:54Z</time>
      </trkpt>
      <trkpt lat="46.71693" lon="5.6365">
        <ele>369</ele>
        <time>2025-05-20T14:37:24Z</time>
      </trkpt>
      <trkpt lat="46.71674" lon="5.63624">
        <ele>361</ele>
        <time>2025-05-20T14:37:58Z</time>
      </trkpt>
      <trkpt lat="46.7154" lon="5.63564">
        <ele>333</ele>
        <time>2025-05-20T14:41:06Z</time>
      </trkpt>
      <trkpt lat="46.71532" lon="5.63525">
        <ele>324</ele>
        <time>2025-05-20T14:41:43Z</time>
      </trkpt>
      <trkpt lat="46.71471" lon="5.63533">
        <ele>317</ele>
        <time>2025-05-20T14:43:04Z</time>
      </trkpt>
      <trkpt lat="46.71398" lon="5.63629">
        <ele>321</ele>
        <time>2025-05-20T14:45:16Z</time>
      </trkpt>
      <trkpt lat="46.71341" lon="5.63676">
        <ele>312</ele>
        <time>2025-05-20T14:46:43Z</time>
      </trkpt>
      <trkpt lat="46.71332" lon="5.637">
        <ele>313</ele>
        <time>2025-05-20T14:47:08Z</time>
      </trkpt>
      <trkpt lat="46.71336" lon="5.63748">
        <ele>324</ele>
        <time>2025-05-20T14:47:52Z</time>
      </trkpt>
      <trkpt lat="46.71282" lon="5.64053">
        <ele>347</ele>
        <time>2025-05-20T14:52:41Z</time>
      </trkpt>
      <trkpt lat="46.71264" lon="5.64304">
        <ele>379</ele>
        <time>2025-05-20T14:56:31Z</time>
      </trkpt>
      <trkpt lat="46.71224" lon="5.6446">
        <ele>393</ele>
        <time>2025-05-20T14:59:04Z</time>
      </trkpt>
      <trkpt lat="46.71213" lon="5.64549">
        <ele>403</ele>
        <time>2025-05-20T15:00:27Z</time>
      </trkpt>
      <trkpt lat="46.71185" lon="5.6461">
        <ele>386</ele>
        <time>2025-05-20T15:01:34Z</time>
      </trkpt>
      <trkpt lat="46.71148" lon="5.64672">
        <ele>375</ele>
        <time>2025-05-20T15:02:49Z</time>
      </trkpt>
      <trkpt lat="46.71043" lon="5.64795">
        <ele>363</ele>
        <time>2025-05-20T15:05:49Z</time>
      </trkpt>
      <trkpt lat="46.71012" lon="5.64819">
        <ele>360</ele>
        <time>2025-05-20T15:06:36Z</time>
      </trkpt>
      <trkpt lat="46.70975" lon="5.64819">
        <ele>350</ele>
        <time>2025-05-20T15:07:25Z</time>
      </trkpt>
      <trkpt lat="46.71004" lon="5.64799">
        <ele>352</ele>
        <time>2025-05-20T15:08:08Z</time>
      </trkpt>
      <trkpt lat="46.71031" lon="5.64768">
        <ele>350</ele>
        <time>2025-05-20T15:08:54Z</time>
      </trkpt>
      <trkpt lat="46.71045" lon="5.64713">
        <ele>340</ele>
        <time>2025-05-20T15:09:47Z</time>
      </trkpt>
      <trkpt lat="46.71028" lon="5.64683">
        <ele>329</ele>
        <time>2025-05-20T15:10:23Z</time>
      </trkpt>
      <trkpt lat="46.7103" lon="5.64651">
        <ele>324</ele>
        <time>2025-05-20T15:10:52Z</time>
      </trkpt>
      <trkpt lat="46.71049" lon="5.64597">
        <ele>320</ele>
        <time>2025-05-20T15:11:48Z</time>
      </trkpt>
      <trkpt lat="46.71005" lon="5.64608">
        <ele>312</ele>
        <time>2025-05-20T15:12:47Z</time>
      </trkpt>
      <trkpt lat="46.70985" lon="5.64653">
        <ele>315</ele>
        <time>2025-05-20T15:13:36Z</time>
      </trkpt>
      <trkpt lat="46.70937" lon="5.64695">
        <ele>314</ele>
        <time>2025-05-20T15:14:51Z</time>
      </trkpt>
      <trkpt lat="46.70839" lon="5.64742">
        <ele>311</ele>
        <time>2025-05-20T15:17:09Z</time>
      </trkpt>
    </trkseg>
  </trk>
</gpx>